createdAt,value
2019-04-05T00:01:14.095Z,33.30
2019-04-05T00:03:41.546Z,31.47
2019-04-05T00:06:08.970Z,32.47
2019-04-05T00:08:36.766Z,32.57
2019-04-05T00:11:04.266Z,35.23
2019-04-05T00:13:31.717Z,32.90
2019-04-05T00:15:59.182Z,34.50
2019-04-05T00:18:26.663Z,34.63
2019-04-05T00:20:54.088Z,36.37
2019-04-05T00:23:21.589Z,37.73
2019-04-05T00:25:49.030Z,38.40
2019-04-05T00:28:16.522Z,37.00
2019-04-05T00:30:43.968Z,33.70
2019-04-05T00:33:11.446Z,32.03
2019-04-05T00:35:38.907Z,33.50
2019-04-05T00:38:06.327Z,37.53
2019-04-05T00:40:33.953Z,28.57
2019-04-05T00:43:01.393Z,37.07
2019-04-05T00:45:29.076Z,36.47
2019-04-05T00:47:56.601Z,36.90
2019-04-05T00:50:24.018Z,40.87
2019-04-05T00:52:51.488Z,34.70
2019-04-05T00:55:18.941Z,39.03
2019-04-05T00:57:49.362Z,36.70
2019-04-05T01:00:15.727Z,39.60
2019-04-05T01:02:43.165Z,41.13
2019-04-05T01:05:12.408Z,41.43
2019-04-05T01:07:39.902Z,40.67
2019-04-05T01:10:07.815Z,39.83
2019-04-05T01:12:36.507Z,45.10
2019-04-05T01:15:04.270Z,42.23
2019-04-05T01:17:32.087Z,44.97
2019-04-05T01:20:01.959Z,41.30
2019-04-05T01:22:31.610Z,46.83
2019-04-05T01:24:59.466Z,44.77
2019-04-05T01:27:29.017Z,47.10
2019-04-05T01:29:56.464Z,39.93
2019-04-05T01:32:23.895Z,49.67
2019-04-05T01:34:51.357Z,45.33
2019-04-05T01:37:18.802Z,46.93
2019-04-05T01:39:46.263Z,43.93
2019-04-05T01:42:13.724Z,51.13
2019-04-05T01:44:41.162Z,46.30
2019-04-05T01:47:08.620Z,47.10
2019-04-05T01:49:36.037Z,41.63
2019-04-05T01:52:03.637Z,49.57
2019-04-05T01:54:31.362Z,43.33
2019-04-05T01:57:18.290Z,45.33
2019-04-05T01:59:45.722Z,46.73
2019-04-05T02:02:13.154Z,46.50
2019-04-05T02:04:40.606Z,45.83
2019-04-05T02:07:08.050Z,47.43
2019-04-05T02:09:36.391Z,45.17
2019-04-05T02:12:03.803Z,46.93
2019-04-05T02:14:31.222Z,48.20
2019-04-05T02:16:58.684Z,45.57
2019-04-05T02:19:26.095Z,50.00
2019-04-05T02:21:53.558Z,51.13
2019-04-05T02:24:21.325Z,48.63
2019-04-05T02:26:49.039Z,50.13
2019-04-05T02:29:16.493Z,48.40
2019-04-05T02:31:43.929Z,45.87
2019-04-05T02:34:11.371Z,49.13
2019-04-05T02:36:38.901Z,48.50
2019-04-05T02:39:07.185Z,49.40
2019-04-05T02:41:36.021Z,47.93
2019-04-05T02:44:05.603Z,50.27
2019-04-05T02:46:33.182Z,39.37
2019-04-05T02:49:03.384Z,52.93
2019-04-05T02:51:32.405Z,45.47
2019-04-05T02:54:00.353Z,49.90
2019-04-05T02:56:29.766Z,42.67
2019-04-05T02:58:57.698Z,44.67
2019-04-05T03:01:25.632Z,43.10
2019-04-05T03:03:53.129Z,43.30
2019-04-05T03:06:20.640Z,44.67
2019-04-05T03:08:48.221Z,41.93
2019-04-05T03:11:18.452Z,40.50
2019-04-05T03:13:50.801Z,43.17
2019-04-05T03:16:38.513Z,44.43
2019-04-05T03:19:09.420Z,45.93
2019-04-05T03:21:40.672Z,38.40
2019-04-05T03:24:12.416Z,45.13
2019-04-05T03:26:43.947Z,43.90
2019-04-05T03:29:11.771Z,44.80
2019-04-05T03:31:39.330Z,45.67
2019-04-05T03:34:06.892Z,44.43
2019-04-05T03:36:35.743Z,44.77
2019-04-05T03:39:05.072Z,45.10
2019-04-05T03:41:32.492Z,42.67
2019-04-05T03:44:00.062Z,45.07
2019-04-05T03:46:27.855Z,45.70
2019-04-05T03:48:55.474Z,46.80
2019-04-05T03:51:23.146Z,46.97
2019-04-05T03:53:50.872Z,46.37
2019-04-05T03:56:18.643Z,48.17
2019-04-05T03:58:46.109Z,50.77
2019-04-05T04:01:13.773Z,44.30
2019-04-05T04:03:41.436Z,46.43
2019-04-05T04:06:09.170Z,42.53
2019-04-05T04:08:36.826Z,45.40
2019-04-05T04:11:04.657Z,43.70
2019-04-05T04:13:32.610Z,41.63
2019-04-05T04:16:00.774Z,43.73
2019-04-05T04:18:28.406Z,42.50
2019-04-05T04:21:00.439Z,45.67
2019-04-05T04:23:29.300Z,38.00
2019-04-05T04:25:57.471Z,38.40
2019-04-05T04:28:25.120Z,40.77
2019-04-05T04:30:53.139Z,40.27
2019-04-05T04:33:20.811Z,40.73
2019-04-05T04:35:48.833Z,41.30
2019-04-05T04:38:17.119Z,37.73
2019-04-05T04:40:45.351Z,38.83
2019-04-05T04:43:13.775Z,39.83
2019-04-05T04:45:42.326Z,41.90
2019-04-05T04:48:09.816Z,38.07
2019-04-05T04:50:37.680Z,44.40
2019-04-05T04:53:05.639Z,42.03
2019-04-05T04:55:33.811Z,42.67
2019-04-05T04:58:01.305Z,40.47
2019-04-05T05:00:29.128Z,44.57
2019-04-05T05:02:57.179Z,43.30
2019-04-05T05:05:44.409Z,43.90
2019-04-05T05:08:11.846Z,42.27
2019-04-05T05:10:39.327Z,43.90
2019-04-05T05:13:06.999Z,49.10
2019-04-05T05:15:34.842Z,39.93
2019-04-05T05:18:02.695Z,38.57
2019-04-05T05:20:30.590Z,39.73
2019-04-05T05:22:58.328Z,44.63
2019-04-05T05:25:25.985Z,41.83
2019-04-05T05:27:53.559Z,45.73
2019-04-05T05:30:21.084Z,46.50
2019-04-05T05:32:48.675Z,49.70
2019-04-05T05:35:16.091Z,43.73
2019-04-05T05:37:43.612Z,41.93
2019-04-05T05:40:11.457Z,41.10
2019-04-05T05:42:39.305Z,43.20
2019-04-05T05:45:07.377Z,38.07
2019-04-05T05:47:34.821Z,38.13
2019-04-05T05:50:03.939Z,37.67
2019-04-05T05:52:36.664Z,36.23
2019-04-05T05:55:04.441Z,41.47
2019-04-05T05:57:32.156Z,40.27
2019-04-05T06:00:00.505Z,44.17
2019-04-05T06:02:28.560Z,38.53
2019-04-05T06:04:56.023Z,39.17
2019-04-05T06:07:23.487Z,40.00
2019-04-05T06:09:50.946Z,42.40
2019-04-05T06:12:18.419Z,42.00
2019-04-05T06:14:46.006Z,39.83
2019-04-05T06:17:13.736Z,42.23
2019-04-05T06:19:41.209Z,40.70
2019-04-05T06:22:08.616Z,37.50
2019-04-05T06:24:36.075Z,40.27
2019-04-05T06:27:03.509Z,41.37
2019-04-05T06:29:31.006Z,44.60
2019-04-05T06:31:58.883Z,37.93
2019-04-05T06:34:26.320Z,38.13
2019-04-05T06:36:53.803Z,38.97
2019-04-05T06:39:21.240Z,40.43
2019-04-05T06:41:48.649Z,43.23
2019-04-05T06:44:16.101Z,41.17
2019-04-05T06:46:43.557Z,35.40
2019-04-05T06:49:11.064Z,39.27
2019-04-05T06:51:38.527Z,39.77
2019-04-05T06:54:05.990Z,42.33
2019-04-05T06:56:33.433Z,39.43
2019-04-05T06:59:00.928Z,41.57
2019-04-05T07:01:28.411Z,40.93
2019-04-05T07:03:55.855Z,40.30
2019-04-05T07:06:23.299Z,38.67
2019-04-05T07:08:54.084Z,42.77
2019-04-05T07:11:20.015Z,45.07
2019-04-05T07:13:48.237Z,46.37
2019-04-05T07:16:15.671Z,44.40
2019-04-05T07:18:43.098Z,44.23
2019-04-05T07:21:10.587Z,47.00
2019-04-05T07:23:38.510Z,44.13
2019-04-05T07:26:05.969Z,43.23
2019-04-05T07:28:33.394Z,38.73
2019-04-05T07:31:01.126Z,40.53
2019-04-05T07:33:28.543Z,41.63
2019-04-05T07:35:56.052Z,41.20
2019-04-05T07:38:23.470Z,42.17
2019-04-05T07:40:50.903Z,39.03
2019-04-05T07:43:18.321Z,38.97
2019-04-05T07:45:46.113Z,41.63
2019-04-05T07:48:13.741Z,41.00
2019-04-05T07:50:41.509Z,36.70
2019-04-05T07:53:08.940Z,35.07
2019-04-05T07:55:36.778Z,38.73
2019-04-05T07:58:04.203Z,36.80
2019-04-05T08:00:42.108Z,35.30
2019-04-05T08:03:09.534Z,32.23
2019-04-05T08:05:37.290Z,38.10
2019-04-05T08:08:07.343Z,33.60
2019-04-05T08:10:35.215Z,36.57
2019-04-05T08:13:03.419Z,34.87
2019-04-05T08:15:31.007Z,37.15
2019-04-05T08:17:58.422Z,38.90
2019-04-05T08:20:25.888Z,39.07
2019-04-05T08:22:53.310Z,42.43
2019-04-05T08:25:20.751Z,37.83
2019-04-05T08:27:48.222Z,37.13
2019-04-05T08:30:35.140Z,36.30
2019-04-05T08:33:02.658Z,38.67
2019-04-05T08:35:30.148Z,32.77
2019-04-05T08:37:57.624Z,39.88
2019-04-05T08:40:25.124Z,36.17
2019-04-05T08:42:52.896Z,34.50
2019-04-05T08:45:20.476Z,35.20
2019-04-05T08:47:48.148Z,39.10
2019-04-05T08:50:15.633Z,33.87
2019-04-05T08:52:43.210Z,39.13
2019-04-05T08:55:10.762Z,32.10
2019-04-05T08:57:38.251Z,36.25
2019-04-05T09:00:07.139Z,35.80
2019-04-05T09:02:34.715Z,36.83
2019-04-05T09:05:02.226Z,32.37
2019-04-05T09:07:29.738Z,30.88
2019-04-05T09:09:57.247Z,34.25
2019-04-05T09:12:24.743Z,32.45
2019-04-05T09:14:52.341Z,34.43
2019-04-05T09:17:19.816Z,29.95
2019-04-05T09:19:47.310Z,35.13
2019-04-05T09:22:14.781Z,32.40
2019-04-05T09:24:42.295Z,37.55
2019-04-05T09:27:10.165Z,37.45
2019-04-05T09:29:37.635Z,35.60
2019-04-05T09:32:05.108Z,35.92
2019-04-05T09:34:32.575Z,33.00
2019-04-05T09:37:00.051Z,33.48
2019-04-05T09:39:27.573Z,35.83
2019-04-05T09:41:55.033Z,31.45
2019-04-05T09:44:23.759Z,30.43
2019-04-05T09:46:51.658Z,34.88
2019-04-05T09:49:19.106Z,31.95
2019-04-05T09:51:46.624Z,32.17
2019-04-05T09:54:14.058Z,32.70
2019-04-05T09:56:41.583Z,33.67
2019-04-05T09:59:09.049Z,32.85
2019-04-05T10:01:36.506Z,34.95
2019-04-05T10:04:04.004Z,31.42
2019-04-05T10:06:31.779Z,30.65
2019-04-05T10:08:59.510Z,26.75
2019-04-05T10:11:26.938Z,31.10
2019-04-05T10:13:54.398Z,31.45
2019-04-05T10:16:21.909Z,30.27
2019-04-05T10:18:51.533Z,28.85
2019-04-05T10:21:18.842Z,32.10
2019-04-05T10:23:46.381Z,40.55
2019-04-05T10:26:13.820Z,33.58
2019-04-05T10:28:41.303Z,34.00
2019-04-05T10:31:08.833Z,30.68
2019-04-05T10:33:36.340Z,29.77
2019-04-05T10:36:03.938Z,30.32
2019-04-05T10:38:31.411Z,35.52
2019-04-05T10:40:58.898Z,31.33
2019-04-05T10:43:28.086Z,34.50
2019-04-05T10:45:55.937Z,32.88
2019-04-05T10:48:23.412Z,31.20
2019-04-05T10:50:50.874Z,27.60
2019-04-05T10:53:18.348Z,28.30
2019-04-05T10:55:46.081Z,28.70
2019-04-05T10:58:13.531Z,30.10
2019-04-05T11:00:41.053Z,30.65
2019-04-05T11:03:08.876Z,28.02
2019-04-05T11:05:36.297Z,27.73
2019-04-05T11:08:03.725Z,30.75
2019-04-05T11:10:31.162Z,30.65
2019-04-05T11:12:58.617Z,28.17
2019-04-05T11:15:26.056Z,27.17
2019-04-05T11:17:53.524Z,25.12
2019-04-05T11:20:21.938Z,26.15
2019-04-05T11:22:50.922Z,26.62
2019-04-05T11:25:20.571Z,28.15
2019-04-05T11:27:48.274Z,27.77
2019-04-05T11:30:27.037Z,35.92
2019-04-05T11:32:54.368Z,34.10
2019-04-05T11:35:21.918Z,24.77
2019-04-05T11:37:50.694Z,27.85
2019-04-05T11:40:18.240Z,30.57
2019-04-05T11:42:46.580Z,28.60
2019-04-05T11:45:14.871Z,27.32
2019-04-05T11:47:43.263Z,27.32
2019-04-05T11:50:13.182Z,30.37
2019-04-05T11:52:40.771Z,26.17
2019-04-05T11:55:08.309Z,28.32
2019-04-05T11:57:35.793Z,31.70
2019-04-05T12:00:07.726Z,36.03
2019-04-05T12:02:45.210Z,25.55
2019-04-05T12:05:14.534Z,20.70
2019-04-05T12:07:42.001Z,22.37
2019-04-05T12:10:09.657Z,21.87
2019-04-05T12:12:38.413Z,25.92
2019-04-05T12:15:07.913Z,20.57
2019-04-05T12:17:35.821Z,24.23
2019-04-05T12:20:04.414Z,23.67
2019-04-05T12:22:32.626Z,26.52
2019-04-05T12:25:02.853Z,26.20
2019-04-05T12:27:30.948Z,23.40
2019-04-05T12:29:58.366Z,27.52
2019-04-05T12:32:34.580Z,25.08
2019-04-05T12:34:58.365Z,26.55
2019-04-05T12:37:25.818Z,31.70
2019-04-05T12:39:53.237Z,25.50
2019-04-05T12:42:20.683Z,24.77
2019-04-05T12:44:48.167Z,33.30
2019-04-05T12:47:35.187Z,25.60
2019-04-05T12:50:03.343Z,23.57
2019-04-05T12:52:31.180Z,23.62
2019-04-05T12:54:58.618Z,27.48
2019-04-05T12:57:27.880Z,23.50
2019-04-05T12:59:56.429Z,27.67
2019-04-05T13:02:33.378Z,24.15
2019-04-05T13:04:54.527Z,28.60
2019-04-05T13:07:22.892Z,27.55
2019-04-05T13:09:53.975Z,29.65
2019-04-05T13:12:20.177Z,30.45
2019-04-05T13:14:47.649Z,33.25
2019-04-05T13:17:15.173Z,29.15
2019-04-05T13:19:42.932Z,28.32
2019-04-05T13:22:10.709Z,30.85
2019-04-05T13:24:40.282Z,28.98
2019-04-05T13:27:07.452Z,27.85
2019-04-05T13:29:34.951Z,27.13
2019-04-05T13:32:02.787Z,30.85
2019-04-05T13:34:30.238Z,29.95
2019-04-05T13:36:59.322Z,29.60
2019-04-05T13:39:27.525Z,30.72
2019-04-05T13:41:56.352Z,29.63
2019-04-05T13:44:24.896Z,32.90
2019-04-05T13:46:52.667Z,30.05
2019-04-05T13:49:21.370Z,31.25
2019-04-05T13:51:48.827Z,31.65
2019-04-05T13:54:16.603Z,32.73
2019-04-05T13:56:44.312Z,32.50
2019-04-05T13:59:11.758Z,29.18
2019-04-05T14:01:39.231Z,31.40
2019-04-05T14:04:06.687Z,28.00
2019-04-05T14:06:34.495Z,32.38
2019-04-05T14:09:02.004Z,31.42
2019-04-05T14:11:29.430Z,33.33
2019-04-05T14:13:57.237Z,33.40
2019-04-05T14:16:24.721Z,40.10
2019-04-05T14:18:52.206Z,40.58
2019-04-05T14:21:22.258Z,37.58
2019-04-05T14:23:49.285Z,31.10
2019-04-05T14:26:16.959Z,38.20
2019-04-05T14:28:44.927Z,34.85
2019-04-05T14:31:12.420Z,36.08
2019-04-05T14:33:40.023Z,42.45
2019-04-05T14:36:07.439Z,38.50
2019-04-05T14:38:34.914Z,47.93
2019-04-05T14:41:04.159Z,41.65
2019-04-05T14:43:32.049Z,36.15
2019-04-05T14:46:02.715Z,32.00
2019-04-05T14:48:31.764Z,33.40
2019-04-05T14:50:58.565Z,41.68
2019-04-05T14:53:26.103Z,36.42
2019-04-05T14:55:53.577Z,43.35
2019-04-05T14:58:22.152Z,32.93
2019-04-05T15:00:49.656Z,37.63
2019-04-05T15:03:17.183Z,31.70
2019-04-05T15:05:44.961Z,32.33
2019-04-05T15:08:13.081Z,35.48
2019-04-05T15:10:40.599Z,36.17
2019-04-05T15:13:08.160Z,34.35
2019-04-05T15:15:36.135Z,36.60
2019-04-05T15:18:04.131Z,33.90
2019-04-05T15:20:32.693Z,36.28
2019-04-05T15:23:01.195Z,36.73
2019-04-05T15:25:28.697Z,34.88
2019-04-05T15:27:56.769Z,37.93
2019-04-05T15:30:26.451Z,38.35
2019-04-05T15:32:53.509Z,43.45
2019-04-05T15:35:21.006Z,38.63
2019-04-05T15:37:49.019Z,36.23
2019-04-05T15:40:16.445Z,40.45
2019-04-05T15:42:44.005Z,36.08
2019-04-05T15:45:15.845Z,40.55
2019-04-05T15:47:42.055Z,42.05
2019-04-05T15:50:09.761Z,34.67
2019-04-05T15:52:37.296Z,38.02
2019-04-05T15:55:05.370Z,40.90
2019-04-05T15:57:34.231Z,41.02
2019-04-05T16:00:04.789Z,41.02
2019-04-05T16:02:32.974Z,37.63
2019-04-05T16:05:00.703Z,42.25
2019-04-05T16:07:29.035Z,40.25
2019-04-05T16:09:56.891Z,41.20
2019-04-05T16:12:24.376Z,37.78
2019-04-05T16:17:34.549Z,33.23
2019-04-05T16:20:02.169Z,36.25
2019-04-05T16:22:49.263Z,38.13
2019-04-05T16:25:16.967Z,39.90
2019-04-05T16:27:45.003Z,37.48
2019-04-05T16:30:13.343Z,38.53
2019-04-05T16:32:41.497Z,37.90
2019-04-05T16:35:10.348Z,38.98
2019-04-05T16:37:37.822Z,39.75
2019-04-05T16:40:06.001Z,38.88
2019-04-05T16:42:35.225Z,37.58
2019-04-05T16:45:03.114Z,40.73
2019-04-05T16:47:30.579Z,37.08
2019-04-05T16:49:58.113Z,40.28
2019-04-05T16:52:26.022Z,40.80
2019-04-05T16:54:53.468Z,38.70
2019-04-05T16:57:21.028Z,38.20
2019-04-05T16:59:48.835Z,36.85
2019-04-05T17:02:16.694Z,38.55
2019-04-05T17:04:44.696Z,33.85
2019-04-05T17:07:12.338Z,41.80
2019-04-05T17:09:39.895Z,38.95
2019-04-05T17:12:07.353Z,40.75
2019-04-05T17:14:35.138Z,35.95
2019-04-05T17:17:02.616Z,39.10
2019-04-05T17:19:31.281Z,38.45
2019-04-05T17:21:58.823Z,41.20
2019-04-05T17:24:27.697Z,45.85
2019-04-05T17:26:55.156Z,42.58
2019-04-05T17:29:22.605Z,40.67
2019-04-05T17:31:50.106Z,41.02
2019-04-05T17:34:17.562Z,36.33
2019-04-05T17:36:45.492Z,39.27
2019-04-05T17:39:13.007Z,40.12
2019-04-05T17:41:40.862Z,39.38
2019-04-05T17:44:08.356Z,55.20
2019-04-05T17:46:35.848Z,43.10
2019-04-05T17:49:03.416Z,39.45
2019-04-05T17:51:31.033Z,37.70
2019-04-05T17:54:01.113Z,43.70
2019-04-05T17:56:29.163Z,39.92
2019-04-05T17:58:57.292Z,39.67
2019-04-05T18:01:25.231Z,45.63
2019-04-05T18:03:52.843Z,41.68
2019-04-05T18:06:20.441Z,43.53
2019-04-05T18:08:47.962Z,44.27
2019-04-05T18:11:15.529Z,46.08
2019-04-05T18:13:43.055Z,43.73
2019-04-05T18:16:10.584Z,43.75
2019-04-05T18:18:39.079Z,43.00
2019-04-05T18:21:06.518Z,42.43
2019-04-05T18:23:34.206Z,43.40
2019-04-05T18:26:01.709Z,44.15
2019-04-05T18:28:29.153Z,39.25
2019-04-05T18:30:56.618Z,43.02
2019-04-05T18:33:24.102Z,45.80
2019-04-05T18:35:51.512Z,42.90
2019-04-05T18:38:18.978Z,39.90
2019-04-05T18:40:46.403Z,46.83
2019-04-05T18:43:13.872Z,43.85
2019-04-05T18:45:41.765Z,44.35
2019-04-05T18:48:09.187Z,43.63
2019-04-05T18:50:36.626Z,42.17
2019-04-05T18:53:04.107Z,45.35
2019-04-05T18:55:31.532Z,43.65
2019-04-05T18:57:58.959Z,44.33
2019-04-05T19:00:26.415Z,43.30
2019-04-05T19:02:53.878Z,45.88
2019-04-05T19:05:21.462Z,50.15
2019-04-05T19:07:48.915Z,41.75
2019-04-05T19:10:16.473Z,54.50
2019-04-05T19:12:44.051Z,44.63
2019-04-05T19:15:11.675Z,54.20
2019-04-05T19:17:39.103Z,51.65
2019-04-05T19:20:07.430Z,46.98
2019-04-05T19:22:34.922Z,48.85
2019-04-05T19:25:04.854Z,48.17
2019-04-05T19:27:31.662Z,49.38
2019-04-05T19:29:59.088Z,52.78
2019-04-05T19:49:51.531Z,50.45
2019-04-05T19:52:19.069Z,55.45
2019-04-05T19:54:46.526Z,48.58
2019-04-05T19:57:13.983Z,49.45
2019-04-05T19:59:41.461Z,47.43
2019-04-05T20:02:09.274Z,50.88
2019-04-05T20:04:37.470Z,52.98
2019-04-05T20:07:04.905Z,52.95
2019-04-05T20:09:32.347Z,58.90
2019-04-05T20:11:59.780Z,53.98
2019-04-05T20:14:27.528Z,59.10
2019-04-05T20:16:54.979Z,55.58
2019-04-05T20:19:22.786Z,139.90
2019-04-05T20:21:50.218Z,231.10
2019-04-05T20:24:17.663Z,212.08
2019-04-05T20:26:45.535Z,149.40
2019-04-05T20:29:12.961Z,75.10
2019-04-05T20:31:40.384Z,81.80
2019-04-05T20:34:07.885Z,64.25
2019-04-05T20:36:35.327Z,59.38
2019-04-05T20:39:04.454Z,90.20
2019-04-05T20:41:31.926Z,53.95
2019-04-05T20:43:59.389Z,65.52
2019-04-05T20:46:26.803Z,53.25
2019-04-05T20:48:54.254Z,48.98
2019-04-05T20:51:21.750Z,54.07
2019-04-05T20:53:49.209Z,51.57
2019-04-05T20:56:16.660Z,46.53
2019-04-05T20:58:44.190Z,52.50
2019-04-05T21:01:11.609Z,48.93
2019-04-05T21:03:39.083Z,61.33
2019-04-05T21:06:06.563Z,63.80
2019-04-05T21:08:34.102Z,63.83
2019-04-05T21:11:02.716Z,57.13
2019-04-05T21:13:30.211Z,60.03
2019-04-05T21:15:57.910Z,68.93
2019-04-05T21:18:25.902Z,67.67
2019-04-05T21:20:53.385Z,66.47
2019-04-05T21:23:20.888Z,86.57
2019-04-05T21:25:48.396Z,62.53
2019-04-05T21:28:16.168Z,63.70
2019-04-05T21:30:43.655Z,54.50
2019-04-05T21:33:11.161Z,58.20
2019-04-05T21:35:38.942Z,71.53
2019-04-05T21:38:06.393Z,61.17
2019-04-05T21:40:33.871Z,53.90
2019-04-05T21:43:01.719Z,47.83
2019-04-05T21:45:29.213Z,49.60
2019-04-05T21:47:56.649Z,52.10
2019-04-05T21:50:24.086Z,50.37
2019-04-05T21:52:51.585Z,60.73
2019-04-05T21:55:19.010Z,55.57
2019-04-05T21:57:46.436Z,62.70
2019-04-05T22:00:23.672Z,54.80
2019-04-05T22:02:51.511Z,48.60
2019-04-05T22:05:18.978Z,51.20
2019-04-05T22:07:46.485Z,47.57
2019-04-05T22:10:13.905Z,51.93
2019-04-05T22:12:41.351Z,59.80
2019-04-05T22:15:09.144Z,58.63
2019-04-05T22:17:36.558Z,60.57
2019-04-05T22:20:04.610Z,60.83
2019-04-05T22:22:32.071Z,53.40
2019-04-05T22:24:59.797Z,57.00
2019-04-05T22:27:27.325Z,54.43
2019-04-05T22:29:54.806Z,57.70
2019-04-05T22:32:22.271Z,52.93
2019-04-05T22:34:49.719Z,53.40
2019-04-05T22:37:17.186Z,52.63
2019-04-05T22:39:44.630Z,51.03
2019-04-05T22:42:12.041Z,55.57
2019-04-05T22:44:41.570Z,56.10
2019-04-05T22:47:08.698Z,56.53
2019-04-05T22:49:36.110Z,50.77
2019-04-05T22:52:03.534Z,59.87
2019-04-05T22:54:31.049Z,56.60
2019-04-05T22:56:58.464Z,57.27
2019-04-05T22:59:25.937Z,55.63
2019-04-05T23:01:53.389Z,54.67
2019-04-05T23:04:20.838Z,52.13
2019-04-05T23:06:48.254Z,54.20
2019-04-05T23:09:15.758Z,55.03
2019-04-05T23:11:43.326Z,53.23
2019-04-05T23:14:10.728Z,59.30
2019-04-05T23:16:38.183Z,52.43
2019-04-05T23:19:05.599Z,61.00
2019-04-05T23:21:33.082Z,52.57
2019-04-05T23:24:00.559Z,54.87
2019-04-05T23:26:28.968Z,54.53
2019-04-05T23:28:56.613Z,56.80
2019-04-05T23:31:24.063Z,55.57
2019-04-05T23:33:51.495Z,55.77
2019-04-05T23:36:18.938Z,55.73
2019-04-05T23:38:46.410Z,54.97
2019-04-05T23:41:13.822Z,52.30
2019-04-05T23:43:41.242Z,54.30
2019-04-05T23:46:08.711Z,59.10
2019-04-05T23:48:36.130Z,56.83
2019-04-05T23:51:03.560Z,56.97
2019-04-05T23:53:30.994Z,58.17
2019-04-05T23:55:58.418Z,58.50
2019-04-05T23:58:25.865Z,64.93
